sensor_id;sensor_type;location;lat;lon;timestamp;P1;durP1;ratioP1;P2;durP2;ratioP2
51556;SDS011;38766;53.194;5.532;2023-10-13T00:01:47;101.25;;;32.22;;
51556;SDS011;38766;53.194;5.532;2023-10-13T00:04:13;97.10;;;34.65;;
51556;SDS011;38766;53.194;5.532;2023-10-13T00:06:39;100.82;;;34.33;;
51556;SDS011;38766;53.194;5.532;2023-10-13T00:09:04;104.13;;;34.60;;
51556;SDS011;38766;53.194;5.532;2023-10-13T00:11:30;107.05;;;35.90;;
51556;SDS011;38766;53.194;5.532;2023-10-13T00:13:56;102.55;;;35.33;;
51556;SDS011;38766;53.194;5.532;2023-10-13T00:16:22;106.75;;;35.88;;
51556;SDS011;38766;53.194;5.532;2023-10-13T00:18:52;110.40;;;35.78;;
51556;SDS011;38766;53.194;5.532;2023-10-13T00:21:22;98.65;;;34.67;;
51556;SDS011;38766;53.194;5.532;2023-10-13T00:24:01;110.43;;;35.55;;
51556;SDS011;38766;53.194;5.532;2023-10-13T00:26:31;117.10;;;35.35;;
51556;SDS011;38766;53.194;5.532;2023-10-13T00:29:01;101.50;;;34.63;;
51556;SDS011;38766;53.194;5.532;2023-10-13T00:31:28;118.50;;;37.55;;
51556;SDS011;38766;53.194;5.532;2023-10-13T00:34:01;100.30;;;35.95;;
51556;SDS011;38766;53.194;5.532;2023-10-13T00:36:38;114.00;;;34.88;;
51556;SDS011;38766;53.194;5.532;2023-10-13T00:39:13;103.93;;;34.25;;
51556;SDS011;38766;53.194;5.532;2023-10-13T00:41:44;96.18;;;33.88;;
51556;SDS011;38766;53.194;5.532;2023-10-13T00:44:17;88.50;;;32.10;;
51556;SDS011;38766;53.194;5.532;2023-10-13T00:46:51;92.00;;;32.78;;
51556;SDS011;38766;53.194;5.532;2023-10-13T00:49:21;81.22;;;31.98;;
51556;SDS011;38766;53.194;5.532;2023-10-13T00:51:47;80.00;;;28.23;;
51556;SDS011;38766;53.194;5.532;2023-10-13T00:54:14;68.25;;;26.17;;
51556;SDS011;38766;53.194;5.532;2023-10-13T00:56:43;61.47;;;24.58;;
51556;SDS011;38766;53.194;5.532;2023-10-13T00:59:22;49.08;;;20.73;;
51556;SDS011;38766;53.194;5.532;2023-10-13T01:01:50;46.55;;;20.02;;
51556;SDS011;38766;53.194;5.532;2023-10-13T01:04:20;40.95;;;18.45;;
51556;SDS011;38766;53.194;5.532;2023-10-13T01:06:50;38.58;;;16.90;;
51556;SDS011;38766;53.194;5.532;2023-10-13T01:09:16;38.00;;;17.10;;
51556;SDS011;38766;53.194;5.532;2023-10-13T01:11:46;31.02;;;15.68;;
51556;SDS011;38766;53.194;5.532;2023-10-13T01:14:20;37.17;;;15.98;;
51556;SDS011;38766;53.194;5.532;2023-10-13T01:16:47;32.40;;;15.57;;
51556;SDS011;38766;53.194;5.532;2023-10-13T01:19:18;34.67;;;15.02;;
51556;SDS011;38766;53.194;5.532;2023-10-13T01:21:49;29.40;;;14.20;;
51556;SDS011;38766;53.194;5.532;2023-10-13T01:24:19;30.13;;;13.70;;
51556;SDS011;38766;53.194;5.532;2023-10-13T01:26:49;23.95;;;13.65;;
51556;SDS011;38766;53.194;5.532;2023-10-13T01:29:18;29.52;;;14.50;;
51556;SDS011;38766;53.194;5.532;2023-10-13T01:31:44;26.88;;;13.45;;
51556;SDS011;38766;53.194;5.532;2023-10-13T01:34:12;22.70;;;13.32;;
51556;SDS011;38766;53.194;5.532;2023-10-13T01:36:39;20.15;;;12.82;;
51556;SDS011;38766;53.194;5.532;2023-10-13T01:39:09;26.20;;;12.02;;
51556;SDS011;38766;53.194;5.532;2023-10-13T01:41:36;20.48;;;10.82;;
51556;SDS011;38766;53.194;5.532;2023-10-13T01:44:04;20.27;;;9.20;;
51556;SDS011;38766;53.194;5.532;2023-10-13T01:46:30;14.55;;;8.25;;
51556;SDS011;38766;53.194;5.532;2023-10-13T01:48:55;18.77;;;8.20;;
51556;SDS011;38766;53.194;5.532;2023-10-13T01:51:22;11.40;;;7.90;;
51556;SDS011;38766;53.194;5.532;2023-10-13T01:53:48;19.77;;;8.02;;
51556;SDS011;38766;53.194;5.532;2023-10-13T01:56:21;12.15;;;8.25;;
51556;SDS011;38766;53.194;5.532;2023-10-13T01:58:48;15.52;;;7.57;;
51556;SDS011;38766;53.194;5.532;2023-10-13T02:01:14;13.95;;;7.30;;
51556;SDS011;38766;53.194;5.532;2023-10-13T02:03:51;10.40;;;6.18;;
51556;SDS011;38766;53.194;5.532;2023-10-13T02:06:33;14.27;;;7.03;;
51556;SDS011;38766;53.194;5.532;2023-10-13T02:09:06;13.88;;;5.95;;
51556;SDS011;38766;53.194;5.532;2023-10-13T02:11:41;12.25;;;5.18;;
51556;SDS011;38766;53.194;5.532;2023-10-13T02:14:10;7.82;;;4.97;;
51556;SDS011;38766;53.194;5.532;2023-10-13T02:16:37;17.10;;;5.60;;
51556;SDS011;38766;53.194;5.532;2023-10-13T02:19:03;9.65;;;5.65;;
51556;SDS011;38766;53.194;5.532;2023-10-13T02:21:29;8.13;;;5.43;;
51556;SDS011;38766;53.194;5.532;2023-10-13T02:23:57;12.05;;;5.40;;
51556;SDS011;38766;53.194;5.532;2023-10-13T02:26:29;9.63;;;5.88;;
51556;SDS011;38766;53.194;5.532;2023-10-13T02:29:02;14.70;;;5.80;;
51556;SDS011;38766;53.194;5.532;2023-10-13T02:31:32;11.45;;;6.30;;
51556;SDS011;38766;53.194;5.532;2023-10-13T02:34:01;13.55;;;6.22;;
51556;SDS011;38766;53.194;5.532;2023-10-13T02:36:31;13.35;;;6.63;;
51556;SDS011;38766;53.194;5.532;2023-10-13T02:39:14;13.27;;;7.03;;
51556;SDS011;38766;53.194;5.532;2023-10-13T02:41:49;15.02;;;7.55;;
51556;SDS011;38766;53.194;5.532;2023-10-13T02:44:16;15.60;;;7.03;;
51556;SDS011;38766;53.194;5.532;2023-10-13T02:46:56;12.60;;;7.30;;
51556;SDS011;38766;53.194;5.532;2023-10-13T02:49:25;11.43;;;7.55;;
51556;SDS011;38766;53.194;5.532;2023-10-13T02:51:52;13.57;;;8.20;;
51556;SDS011;38766;53.194;5.532;2023-10-13T02:54:20;12.30;;;8.73;;
51556;SDS011;38766;53.194;5.532;2023-10-13T02:56:46;13.52;;;8.98;;
51556;SDS011;38766;53.194;5.532;2023-10-13T02:59:29;14.50;;;9.10;;
51556;SDS011;38766;53.194;5.532;2023-10-13T03:02:05;15.88;;;9.88;;
51556;SDS011;38766;53.194;5.532;2023-10-13T03:04:48;19.73;;;11.40;;
51556;SDS011;38766;53.194;5.532;2023-10-13T03:07:15;20.23;;;11.13;;
51556;SDS011;38766;53.194;5.532;2023-10-13T03:09:44;21.15;;;10.18;;
51556;SDS011;38766;53.194;5.532;2023-10-13T03:12:19;20.63;;;11.30;;
51556;SDS011;38766;53.194;5.532;2023-10-13T03:14:45;20.05;;;11.43;;
51556;SDS011;38766;53.194;5.532;2023-10-13T03:17:13;18.48;;;11.35;;
51556;SDS011;38766;53.194;5.532;2023-10-13T03:19:45;25.65;;;12.00;;
51556;SDS011;38766;53.194;5.532;2023-10-13T03:22:20;21.27;;;13.43;;
51556;SDS011;38766;53.194;5.532;2023-10-13T03:24:55;27.63;;;14.40;;
51556;SDS011;38766;53.194;5.532;2023-10-13T03:27:25;28.17;;;15.75;;
51556;SDS011;38766;53.194;5.532;2023-10-13T03:30:06;35.05;;;15.43;;
51556;SDS011;38766;53.194;5.532;2023-10-13T03:32:40;27.70;;;16.25;;
51556;SDS011;38766;53.194;5.532;2023-10-13T03:35:10;26.65;;;16.52;;
51556;SDS011;38766;53.194;5.532;2023-10-13T03:37:38;32.60;;;18.27;;
51556;SDS011;38766;53.194;5.532;2023-10-13T03:40:06;34.03;;;19.00;;
51556;SDS011;38766;53.194;5.532;2023-10-13T03:45:38;34.00;;;18.65;;
51556;SDS011;38766;53.194;5.532;2023-10-13T03:48:07;39.08;;;19.88;;
51556;SDS011;38766;53.194;5.532;2023-10-13T03:50:37;38.55;;;18.90;;
51556;SDS011;38766;53.194;5.532;2023-10-13T03:53:27;43.83;;;19.33;;
51556;SDS011;38766;53.194;5.532;2023-10-13T03:55:58;36.92;;;20.30;;
51556;SDS011;38766;53.194;5.532;2023-10-13T03:58:36;33.95;;;19.25;;
51556;SDS011;38766;53.194;5.532;2023-10-13T04:01:07;38.73;;;18.37;;
51556;SDS011;38766;53.194;5.532;2023-10-13T04:03:35;33.67;;;17.75;;
51556;SDS011;38766;53.194;5.532;2023-10-13T04:06:06;35.85;;;19.52;;
51556;SDS011;38766;53.194;5.532;2023-10-13T04:08:33;32.42;;;18.98;;
51556;SDS011;38766;53.194;5.532;2023-10-13T04:11:08;35.53;;;18.42;;
51556;SDS011;38766;53.194;5.532;2023-10-13T04:13:53;32.28;;;17.75;;
51556;SDS011;38766;53.194;5.532;2023-10-13T04:16:37;34.88;;;16.77;;
51556;SDS011;38766;53.194;5.532;2023-10-13T04:19:15;32.53;;;16.77;;
51556;SDS011;38766;53.194;5.532;2023-10-13T04:21:54;36.88;;;18.17;;
51556;SDS011;38766;53.194;5.532;2023-10-13T04:24:23;32.72;;;17.20;;
51556;SDS011;38766;53.194;5.532;2023-10-13T04:27:02;34.47;;;16.98;;
51556;SDS011;38766;53.194;5.532;2023-10-13T04:29:37;34.47;;;17.10;;
51556;SDS011;38766;53.194;5.532;2023-10-13T04:32:21;33.75;;;15.40;;
51556;SDS011;38766;53.194;5.532;2023-10-13T04:34:57;33.47;;;16.05;;
51556;SDS011;38766;53.194;5.532;2023-10-13T04:37:34;29.25;;;15.20;;
51556;SDS011;38766;53.194;5.532;2023-10-13T04:40:21;27.13;;;13.65;;
51556;SDS011;38766;53.194;5.532;2023-10-13T04:42:50;19.42;;;11.52;;
51556;SDS011;38766;53.194;5.532;2023-10-13T04:45:22;18.10;;;10.38;;
51556;SDS011;38766;53.194;5.532;2023-10-13T04:47:57;21.20;;;9.85;;
51556;SDS011;38766;53.194;5.532;2023-10-13T04:50:52;17.23;;;9.55;;
51556;SDS011;38766;53.194;5.532;2023-10-13T04:53:44;25.55;;;10.60;;
51556;SDS011;38766;53.194;5.532;2023-10-13T04:56:27;18.75;;;10.23;;
51556;SDS011;38766;53.194;5.532;2023-10-13T04:59:11;21.20;;;11.98;;
51556;SDS011;38766;53.194;5.532;2023-10-13T05:01:43;23.08;;;12.63;;
51556;SDS011;38766;53.194;5.532;2023-10-13T05:04:27;25.73;;;13.63;;
51556;SDS011;38766;53.194;5.532;2023-10-13T05:07:25;25.85;;;13.48;;
51556;SDS011;38766;53.194;5.532;2023-10-13T05:10:09;25.10;;;13.25;;
51556;SDS011;38766;53.194;5.532;2023-10-13T05:12:54;30.10;;;14.13;;
51556;SDS011;38766;53.194;5.532;2023-10-13T05:15:44;26.02;;;13.82;;
51556;SDS011;38766;53.194;5.532;2023-10-13T05:18:31;24.00;;;13.32;;
51556;SDS011;38766;53.194;5.532;2023-10-13T05:21:16;26.40;;;13.18;;
51556;SDS011;38766;53.194;5.532;2023-10-13T05:26:45;24.23;;;13.43;;
51556;SDS011;38766;53.194;5.532;2023-10-13T05:29:29;17.80;;;11.88;;
51556;SDS011;38766;53.194;5.532;2023-10-13T05:32:14;20.95;;;11.30;;
51556;SDS011;38766;53.194;5.532;2023-10-13T05:34:58;18.10;;;10.45;;
51556;SDS011;38766;53.194;5.532;2023-10-13T05:37:42;16.77;;;10.60;;
51556;SDS011;38766;53.194;5.532;2023-10-13T05:40:27;17.17;;;10.27;;
51556;SDS011;38766;53.194;5.532;2023-10-13T05:43:11;13.95;;;9.00;;
51556;SDS011;38766;53.194;5.532;2023-10-13T05:46:01;13.40;;;9.13;;
51556;SDS011;38766;53.194;5.532;2023-10-13T05:48:47;13.70;;;9.18;;
51556;SDS011;38766;53.194;5.532;2023-10-13T05:54:05;10.25;;;6.90;;
51556;SDS011;38766;53.194;5.532;2023-10-13T05:56:34;10.38;;;7.15;;
51556;SDS011;38766;53.194;5.532;2023-10-13T05:59:18;11.23;;;5.90;;
51556;SDS011;38766;53.194;5.532;2023-10-13T06:02:03;9.27;;;5.83;;
51556;SDS011;38766;53.194;5.532;2023-10-13T06:04:47;8.43;;;6.30;;
51556;SDS011;38766;53.194;5.532;2023-10-13T06:07:31;12.02;;;7.00;;
51556;SDS011;38766;53.194;5.532;2023-10-13T06:10:16;10.32;;;6.13;;
51556;SDS011;38766;53.194;5.532;2023-10-13T06:13:00;10.60;;;7.00;;
51556;SDS011;38766;53.194;5.532;2023-10-13T06:15:44;12.50;;;7.53;;
51556;SDS011;38766;53.194;5.532;2023-10-13T06:18:29;11.88;;;6.75;;
51556;SDS011;38766;53.194;5.532;2023-10-13T06:21:13;8.32;;;5.88;;
51556;SDS011;38766;53.194;5.532;2023-10-13T06:23:57;10.25;;;5.55;;
51556;SDS011;38766;53.194;5.532;2023-10-13T06:26:41;13.27;;;5.63;;
51556;SDS011;38766;53.194;5.532;2023-10-13T06:29:26;19.08;;;6.32;;
51556;SDS011;38766;53.194;5.532;2023-10-13T06:31:52;25.35;;;6.85;;
51556;SDS011;38766;53.194;5.532;2023-10-13T06:34:17;39.03;;;9.15;;
51556;SDS011;38766;53.194;5.532;2023-10-13T06:36:53;25.25;;;7.78;;
51556;SDS011;38766;53.194;5.532;2023-10-13T06:39:19;42.45;;;8.43;;
51556;SDS011;38766;53.194;5.532;2023-10-13T06:42:00;43.20;;;8.88;;
51556;SDS011;38766;53.194;5.532;2023-10-13T06:44:28;30.95;;;7.78;;
51556;SDS011;38766;53.194;5.532;2023-10-13T06:46:57;31.52;;;6.68;;
51556;SDS011;38766;53.194;5.532;2023-10-13T06:49:24;17.85;;;5.63;;
51556;SDS011;38766;53.194;5.532;2023-10-13T06:51:50;17.23;;;5.90;;
51556;SDS011;38766;53.194;5.532;2023-10-13T06:54:16;16.38;;;6.03;;
51556;SDS011;38766;53.194;5.532;2023-10-13T06:56:45;17.55;;;5.95;;
51556;SDS011;38766;53.194;5.532;2023-10-13T06:59:11;20.85;;;6.50;;
51556;SDS011;38766;53.194;5.532;2023-10-13T07:01:38;16.75;;;6.90;;
51556;SDS011;38766;53.194;5.532;2023-10-13T07:04:09;25.38;;;7.07;;
51556;SDS011;38766;53.194;5.532;2023-10-13T07:06:41;26.77;;;8.40;;
51556;SDS011;38766;53.194;5.532;2023-10-13T07:09:13;31.13;;;7.68;;
51556;SDS011;38766;53.194;5.532;2023-10-13T07:11:59;30.40;;;7.07;;
51556;SDS011;38766;53.194;5.532;2023-10-13T07:14:48;30.40;;;6.97;;
51556;SDS011;38766;53.194;5.532;2023-10-13T07:17:18;19.85;;;7.18;;
51556;SDS011;38766;53.194;5.532;2023-10-13T07:19:51;30.35;;;8.38;;
51556;SDS011;38766;53.194;5.532;2023-10-13T07:22:31;28.38;;;7.88;;
51556;SDS011;38766;53.194;5.532;2023-10-13T07:25:04;20.88;;;7.93;;
51556;SDS011;38766;53.194;5.532;2023-10-13T07:27:31;19.55;;;7.25;;
51556;SDS011;38766;53.194;5.532;2023-10-13T07:30:00;19.85;;;6.95;;
51556;SDS011;38766;53.194;5.532;2023-10-13T07:32:40;26.30;;;7.78;;
51556;SDS011;38766;53.194;5.532;2023-10-13T07:35:14;25.90;;;7.43;;
51556;SDS011;38766;53.194;5.532;2023-10-13T07:37:43;19.80;;;7.25;;
51556;SDS011;38766;53.194;5.532;2023-10-13T07:40:10;22.55;;;7.47;;
51556;SDS011;38766;53.194;5.532;2023-10-13T07:42:51;20.20;;;7.47;;
51556;SDS011;38766;53.194;5.532;2023-10-13T07:45:26;15.57;;;7.03;;
51556;SDS011;38766;53.194;5.532;2023-10-13T07:48:01;18.60;;;7.05;;
51556;SDS011;38766;53.194;5.532;2023-10-13T07:50:46;17.13;;;7.45;;
51556;SDS011;38766;53.194;5.532;2023-10-13T07:53:14;24.52;;;7.80;;
51556;SDS011;38766;53.194;5.532;2023-10-13T07:55:48;29.75;;;8.02;;
51556;SDS011;38766;53.194;5.532;2023-10-13T07:58:24;22.15;;;7.25;;
51556;SDS011;38766;53.194;5.532;2023-10-13T08:00:50;29.27;;;8.55;;
51556;SDS011;38766;53.194;5.532;2023-10-13T08:03:31;25.88;;;7.72;;
51556;SDS011;38766;53.194;5.532;2023-10-13T08:06:08;16.70;;;7.32;;
51556;SDS011;38766;53.194;5.532;2023-10-13T08:08:37;23.88;;;7.32;;
51556;SDS011;38766;53.194;5.532;2023-10-13T08:11:21;23.25;;;7.28;;
51556;SDS011;38766;53.194;5.532;2023-10-13T08:13:56;28.17;;;7.15;;
51556;SDS011;38766;53.194;5.532;2023-10-13T08:16:41;20.35;;;7.15;;
51556;SDS011;38766;53.194;5.532;2023-10-13T08:19:26;19.08;;;7.45;;
51556;SDS011;38766;53.194;5.532;2023-10-13T08:21:54;17.45;;;6.93;;
51556;SDS011;38766;53.194;5.532;2023-10-13T08:24:39;19.45;;;7.10;;
51556;SDS011;38766;53.194;5.532;2023-10-13T08:27:06;22.13;;;7.25;;
51556;SDS011;38766;53.194;5.532;2023-10-13T08:29:50;18.45;;;6.85;;
51556;SDS011;38766;53.194;5.532;2023-10-13T08:32:22;13.35;;;6.53;;
51556;SDS011;38766;53.194;5.532;2023-10-13T08:34:53;17.85;;;7.22;;
51556;SDS011;38766;53.194;5.532;2023-10-13T08:37:22;15.30;;;7.03;;
51556;SDS011;38766;53.194;5.532;2023-10-13T08:39:54;15.32;;;7.65;;
51556;SDS011;38766;53.194;5.532;2023-10-13T08:42:34;16.67;;;6.93;;
51556;SDS011;38766;53.194;5.532;2023-10-13T08:45:07;11.70;;;8.10;;
51556;SDS011;38766;53.194;5.532;2023-10-13T08:48:09;13.70;;;7.82;;
51556;SDS011;38766;53.194;5.532;2023-10-13T08:50:45;17.23;;;7.50;;
51556;SDS011;38766;53.194;5.532;2023-10-13T08:53:17;14.13;;;7.85;;
51556;SDS011;38766;53.194;5.532;2023-10-13T08:58:38;11.98;;;8.07;;
51556;SDS011;38766;53.194;5.532;2023-10-13T09:01:23;12.00;;;7.97;;
51556;SDS011;38766;53.194;5.532;2023-10-13T09:04:08;14.73;;;8.45;;
51556;SDS011;38766;53.194;5.532;2023-10-13T09:06:51;15.65;;;7.82;;
51556;SDS011;38766;53.194;5.532;2023-10-13T09:09:34;17.55;;;8.23;;
51556;SDS011;38766;53.194;5.532;2023-10-13T09:15:00;14.90;;;8.18;;
51556;SDS011;38766;53.194;5.532;2023-10-13T09:17:31;14.90;;;8.57;;
51556;SDS011;38766;53.194;5.532;2023-10-13T09:22:50;16.20;;;7.32;;
51556;SDS011;38766;53.194;5.532;2023-10-13T09:25:32;15.65;;;7.60;;
51556;SDS011;38766;53.194;5.532;2023-10-13T09:28:00;15.13;;;7.57;;
51556;SDS011;38766;53.194;5.532;2023-10-13T09:30:27;17.70;;;7.32;;
51556;SDS011;38766;53.194;5.532;2023-10-13T09:33:03;16.58;;;7.40;;
51556;SDS011;38766;53.194;5.532;2023-10-13T09:35:30;16.17;;;7.90;;
51556;SDS011;38766;53.194;5.532;2023-10-13T09:38:02;14.77;;;7.53;;
51556;SDS011;38766;53.194;5.532;2023-10-13T09:40:28;15.48;;;6.82;;
51556;SDS011;38766;53.194;5.532;2023-10-13T09:42:58;14.98;;;6.90;;
51556;SDS011;38766;53.194;5.532;2023-10-13T09:45:29;15.32;;;7.13;;
51556;SDS011;38766;53.194;5.532;2023-10-13T09:48:01;15.55;;;7.43;;
51556;SDS011;38766;53.194;5.532;2023-10-13T09:50:41;14.52;;;6.82;;
51556;SDS011;38766;53.194;5.532;2023-10-13T09:53:10;12.18;;;6.55;;
51556;SDS011;38766;53.194;5.532;2023-10-13T09:55:41;15.48;;;6.82;;
51556;SDS011;38766;53.194;5.532;2023-10-13T09:58:38;16.95;;;7.18;;
51556;SDS011;38766;53.194;5.532;2023-10-13T10:01:17;12.30;;;6.07;;
51556;SDS011;38766;53.194;5.532;2023-10-13T10:04:05;16.40;;;6.57;;
51556;SDS011;38766;53.194;5.532;2023-10-13T10:06:34;14.07;;;6.32;;
51556;SDS011;38766;53.194;5.532;2023-10-13T10:09:11;14.15;;;6.03;;
51556;SDS011;38766;53.194;5.532;2023-10-13T10:14:22;11.68;;;6.40;;
51556;SDS011;38766;53.194;5.532;2023-10-13T10:17:06;19.40;;;6.03;;
51556;SDS011;38766;53.194;5.532;2023-10-13T10:19:48;13.98;;;6.20;;
51556;SDS011;38766;53.194;5.532;2023-10-13T10:22:24;14.00;;;6.13;;
51556;SDS011;38766;53.194;5.532;2023-10-13T10:24:55;14.95;;;6.55;;
51556;SDS011;38766;53.194;5.532;2023-10-13T10:27:27;16.38;;;5.55;;
51556;SDS011;38766;53.194;5.532;2023-10-13T10:29:57;18.33;;;5.72;;
51556;SDS011;38766;53.194;5.532;2023-10-13T10:32:33;14.80;;;6.00;;
51556;SDS011;38766;53.194;5.532;2023-10-13T10:35:06;13.07;;;5.93;;
51556;SDS011;38766;53.194;5.532;2023-10-13T10:37:34;14.32;;;5.57;;
51556;SDS011;38766;53.194;5.532;2023-10-13T10:40:06;12.40;;;5.65;;
51556;SDS011;38766;53.194;5.532;2023-10-13T10:42:33;16.65;;;6.03;;
51556;SDS011;38766;53.194;5.532;2023-10-13T10:44:59;20.70;;;6.20;;
51556;SDS011;38766;53.194;5.532;2023-10-13T10:47:33;13.80;;;5.70;;
51556;SDS011;38766;53.194;5.532;2023-10-13T10:50:04;17.38;;;5.40;;
51556;SDS011;38766;53.194;5.532;2023-10-13T10:52:34;17.77;;;5.72;;
51556;SDS011;38766;53.194;5.532;2023-10-13T10:55:04;13.60;;;5.53;;
51556;SDS011;38766;53.194;5.532;2023-10-13T10:57:38;16.33;;;5.88;;
51556;SDS011;38766;53.194;5.532;2023-10-13T11:00:17;12.43;;;5.75;;
51556;SDS011;38766;53.194;5.532;2023-10-13T11:02:56;16.50;;;5.53;;
51556;SDS011;38766;53.194;5.532;2023-10-13T11:05:22;15.68;;;5.30;;
51556;SDS011;38766;53.194;5.532;2023-10-13T11:07:57;12.50;;;4.68;;
51556;SDS011;38766;53.194;5.532;2023-10-13T11:10:23;17.63;;;6.05;;
51556;SDS011;38766;53.194;5.532;2023-10-13T11:12:55;17.40;;;5.93;;
51556;SDS011;38766;53.194;5.532;2023-10-13T11:15:41;13.40;;;6.13;;
51556;SDS011;38766;53.194;5.532;2023-10-13T11:18:10;15.75;;;5.10;;
51556;SDS011;38766;53.194;5.532;2023-10-13T11:20:42;14.55;;;5.57;;
51556;SDS011;38766;53.194;5.532;2023-10-13T11:23:13;14.20;;;5.97;;
51556;SDS011;38766;53.194;5.532;2023-10-13T11:25:40;18.02;;;5.45;;
51556;SDS011;38766;53.194;5.532;2023-10-13T11:28:15;14.20;;;5.32;;
51556;SDS011;38766;53.194;5.532;2023-10-13T11:33:14;13.68;;;6.13;;
51556;SDS011;38766;53.194;5.532;2023-10-13T11:35:43;20.20;;;5.93;;
51556;SDS011;38766;53.194;5.532;2023-10-13T11:38:19;16.20;;;5.97;;
51556;SDS011;38766;53.194;5.532;2023-10-13T11:40:54;23.58;;;8.02;;
51556;SDS011;38766;53.194;5.532;2023-10-13T11:43:29;28.08;;;8.00;;
51556;SDS011;38766;53.194;5.532;2023-10-13T11:46:13;27.55;;;8.35;;
51556;SDS011;38766;53.194;5.532;2023-10-13T11:48:41;27.85;;;8.68;;
51556;SDS011;38766;53.194;5.532;2023-10-13T11:51:09;39.47;;;9.18;;
51556;SDS011;38766;53.194;5.532;2023-10-13T11:53:45;37.50;;;10.52;;
51556;SDS011;38766;53.194;5.532;2023-10-13T11:56:17;42.60;;;10.50;;
51556;SDS011;38766;53.194;5.532;2023-10-13T11:58:45;38.88;;;10.48;;
51556;SDS011;38766;53.194;5.532;2023-10-13T12:01:11;30.75;;;9.70;;
51556;SDS011;38766;53.194;5.532;2023-10-13T12:03:38;34.63;;;10.00;;
51556;SDS011;38766;53.194;5.532;2023-10-13T12:06:26;19.30;;;7.07;;
51556;SDS011;38766;53.194;5.532;2023-10-13T12:09:02;19.90;;;7.25;;
51556;SDS011;38766;53.194;5.532;2023-10-13T12:11:44;23.17;;;8.63;;
51556;SDS011;38766;53.194;5.532;2023-10-13T12:14:16;18.17;;;6.95;;
51556;SDS011;38766;53.194;5.532;2023-10-13T12:16:44;16.20;;;6.70;;
51556;SDS011;38766;53.194;5.532;2023-10-13T12:19:20;23.63;;;6.93;;
51556;SDS011;38766;53.194;5.532;2023-10-13T12:21:55;16.73;;;7.30;;
51556;SDS011;38766;53.194;5.532;2023-10-13T12:24:26;15.77;;;7.32;;
51556;SDS011;38766;53.194;5.532;2023-10-13T12:27:02;21.35;;;8.13;;
51556;SDS011;38766;53.194;5.532;2023-10-13T12:29:43;19.98;;;8.95;;
51556;SDS011;38766;53.194;5.532;2023-10-13T12:32:13;28.85;;;8.05;;
51556;SDS011;38766;53.194;5.532;2023-10-13T12:34:39;18.33;;;7.70;;
51556;SDS011;38766;53.194;5.532;2023-10-13T12:40:05;24.33;;;9.38;;
51556;SDS011;38766;53.194;5.532;2023-10-13T12:42:51;27.35;;;8.95;;
51556;SDS011;38766;53.194;5.532;2023-10-13T12:45:41;29.40;;;8.77;;
51556;SDS011;38766;53.194;5.532;2023-10-13T12:48:26;20.35;;;8.82;;
51556;SDS011;38766;53.194;5.532;2023-10-13T12:51:10;21.25;;;8.02;;
51556;SDS011;38766;53.194;5.532;2023-10-13T12:53:55;21.52;;;8.45;;
51556;SDS011;38766;53.194;5.532;2023-10-13T12:56:29;20.42;;;8.13;;
51556;SDS011;38766;53.194;5.532;2023-10-13T12:58:55;25.67;;;9.18;;
51556;SDS011;38766;53.194;5.532;2023-10-13T13:01:22;19.88;;;8.48;;
51556;SDS011;38766;53.194;5.532;2023-10-13T13:03:50;26.02;;;9.13;;
51556;SDS011;38766;53.194;5.532;2023-10-13T13:06:21;21.08;;;8.45;;
51556;SDS011;38766;53.194;5.532;2023-10-13T13:08:54;25.65;;;9.63;;
51556;SDS011;38766;53.194;5.532;2023-10-13T13:11:24;24.30;;;9.68;;
51556;SDS011;38766;53.194;5.532;2023-10-13T13:13:50;24.10;;;8.60;;
51556;SDS011;38766;53.194;5.532;2023-10-13T13:16:17;23.95;;;9.30;;
51556;SDS011;38766;53.194;5.532;2023-10-13T13:18:47;27.80;;;9.50;;
51556;SDS011;38766;53.194;5.532;2023-10-13T13:21:12;27.77;;;9.95;;
51556;SDS011;38766;53.194;5.532;2023-10-13T13:23:45;29.23;;;9.93;;
51556;SDS011;38766;53.194;5.532;2023-10-13T13:26:11;27.55;;;10.55;;
51556;SDS011;38766;53.194;5.532;2023-10-13T13:28:46;30.90;;;10.32;;
51556;SDS011;38766;53.194;5.532;2023-10-13T13:31:16;28.73;;;9.45;;
51556;SDS011;38766;53.194;5.532;2023-10-13T13:33:50;32.90;;;9.68;;
51556;SDS011;38766;53.194;5.532;2023-10-13T13:36:16;41.70;;;11.25;;
51556;SDS011;38766;53.194;5.532;2023-10-13T13:38:42;28.02;;;9.65;;
51556;SDS011;38766;53.194;5.532;2023-10-13T13:41:14;31.33;;;10.70;;
51556;SDS011;38766;53.194;5.532;2023-10-13T13:43:48;30.05;;;9.15;;
51556;SDS011;38766;53.194;5.532;2023-10-13T13:46:18;34.90;;;10.25;;
51556;SDS011;38766;53.194;5.532;2023-10-13T13:48:44;25.75;;;9.50;;
51556;SDS011;38766;53.194;5.532;2023-10-13T13:51:13;28.10;;;9.38;;
51556;SDS011;38766;53.194;5.532;2023-10-13T13:53:51;30.08;;;9.38;;
51556;SDS011;38766;53.194;5.532;2023-10-13T13:56:18;31.35;;;9.95;;
51556;SDS011;38766;53.194;5.532;2023-10-13T13:58:44;34.42;;;10.70;;
51556;SDS011;38766;53.194;5.532;2023-10-13T14:01:11;31.35;;;10.02;;
51556;SDS011;38766;53.194;5.532;2023-10-13T14:03:40;28.83;;;9.43;;
51556;SDS011;38766;53.194;5.532;2023-10-13T14:06:14;32.20;;;9.30;;
51556;SDS011;38766;53.194;5.532;2023-10-13T14:08:44;31.55;;;9.57;;
51556;SDS011;38766;53.194;5.532;2023-10-13T14:11:13;33.90;;;9.77;;
51556;SDS011;38766;53.194;5.532;2023-10-13T14:13:50;38.33;;;9.73;;
51556;SDS011;38766;53.194;5.532;2023-10-13T14:18:51;34.95;;;8.93;;
51556;SDS011;38766;53.194;5.532;2023-10-13T14:21:17;29.75;;;9.32;;
51556;SDS011;38766;53.194;5.532;2023-10-13T14:23:44;27.00;;;8.55;;
51556;SDS011;38766;53.194;5.532;2023-10-13T14:26:17;28.17;;;9.40;;
51556;SDS011;38766;53.194;5.532;2023-10-13T14:28:49;31.10;;;9.10;;
51556;SDS011;38766;53.194;5.532;2023-10-13T14:31:34;29.05;;;8.93;;
51556;SDS011;38766;53.194;5.532;2023-10-13T14:34:04;29.83;;;8.80;;
51556;SDS011;38766;53.194;5.532;2023-10-13T14:36:30;30.55;;;10.18;;
51556;SDS011;38766;53.194;5.532;2023-10-13T14:38:59;31.90;;;9.45;;
51556;SDS011;38766;53.194;5.532;2023-10-13T14:41:26;28.38;;;9.60;;
51556;SDS011;38766;53.194;5.532;2023-10-13T14:43:52;28.63;;;9.45;;
51556;SDS011;38766;53.194;5.532;2023-10-13T14:46:18;33.20;;;10.68;;
51556;SDS011;38766;53.194;5.532;2023-10-13T14:48:53;35.00;;;9.20;;
51556;SDS011;38766;53.194;5.532;2023-10-13T14:51:19;33.92;;;10.07;;
51556;SDS011;38766;53.194;5.532;2023-10-13T14:53:46;32.22;;;9.57;;
51556;SDS011;38766;53.194;5.532;2023-10-13T14:56:12;29.77;;;9.35;;
51556;SDS011;38766;53.194;5.532;2023-10-13T14:58:40;43.17;;;11.38;;
51556;SDS011;38766;53.194;5.532;2023-10-13T15:01:23;28.48;;;8.68;;
51556;SDS011;38766;53.194;5.532;2023-10-13T15:03:52;34.38;;;10.13;;
51556;SDS011;38766;53.194;5.532;2023-10-13T15:06:23;34.00;;;9.70;;
51556;SDS011;38766;53.194;5.532;2023-10-13T15:08:50;43.05;;;10.25;;
51556;SDS011;38766;53.194;5.532;2023-10-13T15:11:19;29.33;;;10.90;;
51556;SDS011;38766;53.194;5.532;2023-10-13T15:13:45;36.22;;;10.75;;
51556;SDS011;38766;53.194;5.532;2023-10-13T15:16:22;36.08;;;9.57;;
51556;SDS011;38766;53.194;5.532;2023-10-13T15:18:50;33.05;;;9.55;;
51556;SDS011;38766;53.194;5.532;2023-10-13T15:23:55;30.05;;;9.35;;
51556;SDS011;38766;53.194;5.532;2023-10-13T15:26:28;27.33;;;9.02;;
51556;SDS011;38766;53.194;5.532;2023-10-13T15:28:54;31.80;;;9.65;;
51556;SDS011;38766;53.194;5.532;2023-10-13T15:31:25;31.60;;;9.35;;
51556;SDS011;38766;53.194;5.532;2023-10-13T15:34:02;29.92;;;9.57;;
51556;SDS011;38766;53.194;5.532;2023-10-13T15:36:32;31.33;;;9.27;;
51556;SDS011;38766;53.194;5.532;2023-10-13T15:38:58;26.05;;;8.30;;